createdAt,value
2018-10-18T00:01:59.134Z,14.19
2018-10-18T00:04:28.171Z,14.15
2018-10-18T00:06:57.242Z,14.12
2018-10-18T00:09:26.319Z,14.11
2018-10-18T00:11:55.397Z,14.10
2018-10-18T00:14:24.431Z,14.06
2018-10-18T00:16:53.476Z,14.01
2018-10-18T00:19:22.497Z,13.95
2018-10-18T00:21:51.522Z,14.00
2018-10-18T00:24:20.562Z,13.94
2018-10-18T00:26:49.599Z,13.91
2018-10-18T00:29:18.646Z,13.92
2018-10-18T00:31:49.010Z,13.91
2018-10-18T00:34:18.070Z,13.85
2018-10-18T00:36:47.129Z,13.84
2018-10-18T00:39:16.157Z,13.80
2018-10-18T00:41:45.255Z,13.78
2018-10-18T00:44:14.317Z,13.77
2018-10-18T00:46:43.278Z,13.74
2018-10-18T00:49:12.383Z,13.77
2018-10-18T00:51:41.354Z,13.70
2018-10-18T00:54:10.482Z,13.65
2018-10-18T00:56:39.450Z,13.62
2018-10-18T00:59:08.529Z,13.62
2018-10-18T01:01:37.571Z,13.58
2018-10-18T01:04:06.680Z,13.57
2018-10-18T01:06:35.713Z,13.58
2018-10-18T01:09:06.511Z,13.60
2018-10-18T01:11:35.580Z,13.59
2018-10-18T01:14:04.910Z,13.57
2018-10-18T01:16:33.934Z,13.54
2018-10-18T01:19:03.394Z,13.60
2018-10-18T01:21:32.463Z,13.60
2018-10-18T01:24:01.548Z,13.59
2018-10-18T01:26:30.598Z,13.60
2018-10-18T01:28:59.653Z,13.51
2018-10-18T01:31:28.914Z,13.47
2018-10-18T01:33:59.992Z,13.46
2018-10-18T01:36:29.059Z,13.43
2018-10-18T01:38:58.089Z,13.41
2018-10-18T01:41:27.134Z,13.36
2018-10-18T01:43:56.198Z,13.33
2018-10-18T01:46:25.218Z,13.32
2018-10-18T01:48:54.285Z,13.26
2018-10-18T01:51:23.310Z,13.24
2018-10-18T01:53:52.401Z,13.23
2018-10-18T01:56:21.421Z,13.18
2018-10-18T01:58:50.518Z,13.15
2018-10-18T02:01:19.549Z,13.15
2018-10-18T02:03:48.595Z,13.08
2018-10-18T02:06:17.751Z,13.04
2018-10-18T02:08:46.733Z,13.06
2018-10-18T02:11:15.983Z,12.99
2018-10-18T02:13:45.098Z,12.93
2018-10-18T02:16:14.086Z,12.90
2018-10-18T02:18:43.121Z,12.89
2018-10-18T02:21:12.181Z,12.87
2018-10-18T02:23:41.219Z,12.86
2018-10-18T02:26:10.283Z,12.82
2018-10-18T02:28:39.366Z,12.81
2018-10-18T02:31:08.406Z,12.76
2018-10-18T02:33:37.474Z,12.74
2018-10-18T02:36:07.495Z,12.71
2018-10-18T02:38:36.526Z,12.72
2018-10-18T02:41:05.619Z,12.66
2018-10-18T02:43:34.806Z,12.67
2018-10-18T02:46:03.822Z,12.65
2018-10-18T02:48:32.883Z,12.67
2018-10-18T02:51:01.960Z,12.67
2018-10-18T02:53:30.994Z,12.65
2018-10-18T02:56:00.021Z,12.64
2018-10-18T02:58:29.054Z,12.66
2018-10-18T03:00:58.119Z,12.69
2018-10-18T03:03:27.176Z,12.70
2018-10-18T03:05:56.232Z,12.72
2018-10-18T03:08:26.338Z,12.74
2018-10-18T03:10:55.463Z,12.75
2018-10-18T03:13:24.530Z,12.78
2018-10-18T03:15:53.633Z,12.81
2018-10-18T03:18:22.740Z,12.84
2018-10-18T03:20:51.766Z,12.85
2018-10-18T03:23:20.822Z,12.87
2018-10-18T03:25:49.890Z,12.93
2018-10-18T03:28:18.937Z,12.97
2018-10-18T03:30:48.759Z,12.99
2018-10-18T03:33:17.804Z,13.01
2018-10-18T03:35:46.834Z,13.04
2018-10-18T03:38:15.915Z,13.10
2018-10-18T03:40:44.957Z,13.15
2018-10-18T03:43:13.964Z,13.19
2018-10-18T03:45:43.025Z,13.22
2018-10-18T03:48:12.082Z,13.25
2018-10-18T03:50:41.114Z,13.28
2018-10-18T03:53:10.166Z,13.33
2018-10-18T03:55:39.202Z,13.34
2018-10-18T03:58:09.206Z,13.38
2018-10-18T04:00:38.231Z,13.42
2018-10-18T04:03:07.858Z,13.44
2018-10-18T04:05:36.900Z,13.45
2018-10-18T04:08:06.089Z,13.46
2018-10-18T04:10:35.133Z,13.50
2018-10-18T04:13:04.212Z,13.54
2018-10-18T04:15:33.233Z,13.56
2018-10-18T04:18:02.362Z,13.57
2018-10-18T04:20:31.319Z,13.59
2018-10-18T04:23:00.367Z,13.60
2018-10-18T04:25:29.420Z,13.64
2018-10-18T04:27:58.442Z,13.65
2018-10-18T04:30:27.506Z,13.66
2018-10-18T04:32:56.565Z,13.71
2018-10-18T04:35:25.641Z,13.75
2018-10-18T04:37:54.750Z,13.76
2018-10-18T04:40:23.787Z,13.72
2018-10-18T04:42:52.833Z,13.75
2018-10-18T04:45:21.901Z,13.76
2018-10-18T04:47:51.095Z,13.75
2018-10-18T04:50:20.026Z,13.79
2018-10-18T04:52:49.112Z,13.82
2018-10-18T04:55:18.271Z,13.80
2018-10-18T04:57:47.273Z,13.77
2018-10-18T05:00:16.311Z,13.82
2018-10-18T05:02:45.422Z,13.81
2018-10-18T05:05:25.666Z,13.83
2018-10-18T05:07:54.723Z,13.83
2018-10-18T05:10:24.679Z,13.86
2018-10-18T05:12:53.725Z,13.88
2018-10-18T05:15:22.740Z,13.90
2018-10-18T05:17:51.816Z,13.91
2018-10-18T05:20:20.850Z,13.87
2018-10-18T05:22:49.875Z,13.91
2018-10-18T05:25:19.070Z,13.92
2018-10-18T05:27:48.150Z,13.92
2018-10-18T05:30:17.195Z,13.96
2018-10-18T05:32:46.346Z,13.97
2018-10-18T05:35:15.449Z,13.96
2018-10-18T05:37:44.616Z,13.98
2018-10-18T05:40:13.646Z,13.95
2018-10-18T05:42:42.714Z,13.97
2018-10-18T05:45:11.774Z,13.95
2018-10-18T05:47:41.147Z,13.96
2018-10-18T05:50:10.787Z,14.00
2018-10-18T05:52:40.091Z,14.00
2018-10-18T05:55:10.790Z,14.01
2018-10-18T05:57:40.543Z,14.01
2018-10-18T06:00:11.554Z,14.03
2018-10-18T06:02:41.200Z,14.04
2018-10-18T06:05:11.398Z,14.05
2018-10-18T06:07:40.585Z,14.06
2018-10-18T06:10:22.776Z,14.06
2018-10-18T06:12:52.235Z,14.09
2018-10-18T06:15:21.708Z,14.10
2018-10-18T06:17:50.754Z,14.11
2018-10-18T06:20:21.399Z,14.13
2018-10-18T06:22:50.507Z,14.14
2018-10-18T06:25:19.517Z,14.12
2018-10-18T06:27:48.565Z,14.13
2018-10-18T06:30:17.895Z,14.14
2018-10-18T06:32:46.953Z,14.14
2018-10-18T06:35:16.635Z,14.17
2018-10-18T06:37:45.719Z,14.19
2018-10-18T06:40:16.142Z,14.16
2018-10-18T06:42:45.222Z,14.19
2018-10-18T06:45:15.580Z,14.21
2018-10-18T06:47:45.016Z,14.23
2018-10-18T06:50:15.108Z,14.24
2018-10-18T06:52:44.203Z,14.24
2018-10-18T06:55:13.503Z,14.25
2018-10-18T06:57:42.923Z,14.29
2018-10-18T07:00:15.267Z,14.35
2018-10-18T07:02:44.767Z,14.33
2018-10-18T07:05:14.938Z,14.33
2018-10-18T07:07:44.628Z,14.39
2018-10-18T07:10:15.252Z,14.39
2018-10-18T07:12:44.295Z,14.40
2018-10-18T07:15:14.462Z,14.45
2018-10-18T07:17:44.165Z,14.41
2018-10-18T07:20:13.874Z,14.47
2018-10-18T07:22:43.057Z,14.50
2018-10-18T07:25:13.421Z,14.50
2018-10-18T07:27:42.826Z,14.54
2018-10-18T07:30:13.124Z,14.55
2018-10-18T07:32:42.373Z,14.60
2018-10-18T07:35:12.777Z,14.65
2018-10-18T07:37:41.735Z,14.61
2018-10-18T07:40:13.249Z,14.64
2018-10-18T07:42:42.351Z,14.66
2018-10-18T07:45:12.644Z,14.51
2018-10-18T07:47:42.380Z,14.48
2018-10-18T07:50:12.906Z,14.55
2018-10-18T07:52:41.983Z,14.58
2018-10-18T07:55:11.471Z,14.59
2018-10-18T07:57:40.506Z,14.57
2018-10-18T08:00:11.926Z,14.63
2018-10-18T08:02:41.423Z,14.65
2018-10-18T08:05:11.146Z,14.69
2018-10-18T08:07:40.174Z,14.72
2018-10-18T08:10:13.044Z,14.77
2018-10-18T08:12:42.107Z,14.76
2018-10-18T08:15:12.467Z,14.79
2018-10-18T08:17:42.088Z,14.85
2018-10-18T08:20:12.702Z,14.92
2018-10-18T08:22:42.520Z,14.94
2018-10-18T08:25:11.637Z,14.98
2018-10-18T08:27:40.602Z,15.06
2018-10-18T08:30:11.461Z,15.13
2018-10-18T08:32:40.753Z,15.10
2018-10-18T08:35:10.877Z,15.19
2018-10-18T08:37:40.015Z,15.27
2018-10-18T08:40:09.167Z,15.39
2018-10-18T08:42:38.226Z,15.36
2018-10-18T08:45:08.251Z,15.46
2018-10-18T08:47:38.092Z,15.59
2018-10-18T08:50:09.143Z,15.61
2018-10-18T08:52:38.407Z,15.65
2018-10-18T08:55:09.309Z,15.65
2018-10-18T08:57:38.369Z,15.70
2018-10-18T09:00:12.981Z,15.80
2018-10-18T09:02:42.830Z,15.83
2018-10-18T09:05:12.174Z,16.04
2018-10-18T09:07:41.298Z,16.30
2018-10-18T09:10:10.407Z,16.53
2018-10-18T09:12:39.534Z,16.59
2018-10-18T09:15:09.641Z,16.49
2018-10-18T09:17:39.029Z,16.66
2018-10-18T09:20:13.454Z,16.64
2018-10-18T09:22:42.618Z,16.58
2018-10-18T09:25:12.310Z,16.40
2018-10-18T09:27:41.678Z,16.46
2018-10-18T09:30:17.564Z,16.44
2018-10-18T09:32:47.651Z,16.28
2018-10-18T09:35:16.702Z,16.64
2018-10-18T09:37:45.835Z,16.72
2018-10-18T09:40:15.634Z,16.82
2018-10-18T09:42:44.708Z,16.85
2018-10-18T09:45:13.963Z,16.86
2018-10-18T09:47:43.121Z,16.97
2018-10-18T09:50:13.980Z,17.05
2018-10-18T09:52:43.043Z,17.06
2018-10-18T09:55:13.215Z,17.02
2018-10-18T09:57:42.291Z,17.16
2018-10-18T10:00:16.812Z,17.26
2018-10-18T10:02:55.935Z,17.22
2018-10-18T10:05:25.953Z,17.23
2018-10-18T10:08:02.596Z,17.24
2018-10-18T10:10:32.664Z,17.23
2018-10-18T10:13:01.862Z,17.21
2018-10-18T10:15:30.994Z,17.50
2018-10-18T10:18:00.088Z,17.52
2018-10-18T10:20:29.191Z,17.61
2018-10-18T10:23:01.722Z,17.69
2018-10-18T10:25:39.253Z,17.80
2018-10-18T10:28:09.457Z,18.01
2018-10-18T10:30:45.279Z,17.88
2018-10-18T10:33:14.555Z,18.03
2018-10-18T10:35:48.569Z,17.89
2018-10-18T10:38:19.202Z,17.93
2018-10-18T10:40:49.432Z,17.88
2018-10-18T10:43:19.253Z,17.86
2018-10-18T10:45:49.554Z,17.96
2018-10-18T10:48:18.752Z,17.97
2018-10-18T10:50:51.716Z,17.92
2018-10-18T10:53:23.179Z,17.88
2018-10-18T10:56:01.234Z,17.84
2018-10-18T11:01:34.236Z,17.87
2018-10-18T11:04:03.385Z,17.77
2018-10-18T11:06:32.533Z,17.98
2018-10-18T11:09:05.605Z,17.91
2018-10-18T11:11:38.054Z,17.73
2018-10-18T11:14:14.275Z,17.76
2018-10-18T11:16:43.290Z,17.84
2018-10-18T11:19:14.707Z,17.88
2018-10-18T11:21:47.502Z,18.02
2018-10-18T11:24:22.837Z,17.91
2018-10-18T11:26:55.592Z,18.11
2018-10-18T11:29:27.429Z,18.00
2018-10-18T11:31:56.611Z,17.94
2018-10-18T11:34:30.371Z,17.91
2018-10-18T11:37:01.149Z,17.82
2018-10-18T11:39:40.001Z,18.27
2018-10-18T11:42:10.091Z,18.45
2018-10-18T11:45:31.417Z,18.62
2018-10-18T11:48:07.548Z,18.34
2018-10-18T11:50:37.645Z,18.81
2018-10-18T11:53:08.368Z,19.18
2018-10-18T11:55:43.267Z,18.70
2018-10-18T11:58:19.691Z,18.70
2018-10-18T12:01:00.219Z,19.25
2018-10-18T12:03:35.147Z,18.76
2018-10-18T12:06:07.146Z,19.16
2018-10-18T12:08:37.239Z,19.59
2018-10-18T12:11:07.394Z,19.62
2018-10-18T12:13:42.083Z,19.70
2018-10-18T12:16:13.328Z,20.19
2018-10-18T12:18:44.171Z,20.49
2018-10-18T12:21:13.384Z,20.78
2018-10-18T12:23:52.973Z,21.10
2018-10-18T12:26:22.203Z,21.14
2018-10-18T12:29:09.514Z,21.28
2018-10-18T12:31:38.594Z,21.51
2018-10-18T12:34:08.876Z,20.83
2018-10-18T12:36:38.008Z,20.91
2018-10-18T12:39:10.037Z,21.32
2018-10-18T12:41:39.184Z,21.47
2018-10-18T12:44:08.884Z,21.52
2018-10-18T12:46:40.164Z,21.71
2018-10-18T12:49:16.759Z,21.95
2018-10-18T12:51:48.675Z,22.12
2018-10-18T12:54:18.560Z,22.15
2018-10-18T12:56:47.706Z,21.70
2018-10-18T13:05:16.594Z,21.19
2018-10-18T13:07:58.208Z,21.16
2018-10-18T13:10:35.752Z,21.09
2018-10-18T13:13:05.044Z,20.75
2018-10-18T13:15:35.237Z,21.27
2018-10-18T13:18:04.780Z,20.51
2018-10-18T13:20:34.538Z,20.79
2018-10-18T13:23:03.694Z,20.95
2018-10-18T13:25:32.853Z,20.96
2018-10-18T13:28:04.038Z,20.36
2018-10-18T13:30:33.615Z,20.14
2018-10-18T13:33:03.094Z,20.04
2018-10-18T13:35:32.192Z,20.38
2018-10-18T13:38:01.788Z,20.41
2018-10-18T13:40:30.889Z,20.85
2018-10-18T13:43:00.916Z,20.94
2018-10-18T13:45:30.219Z,21.03
2018-10-18T13:47:59.380Z,21.14
2018-10-18T13:50:28.921Z,21.21
2018-10-18T13:53:03.966Z,21.31
2018-10-18T13:55:33.124Z,21.35
2018-10-18T13:58:02.472Z,21.13
2018-10-18T14:00:32.127Z,20.94
2018-10-18T14:03:03.126Z,21.39
2018-10-18T14:05:32.758Z,21.47
2018-10-18T14:08:02.079Z,21.65
2018-10-18T14:10:31.128Z,21.51
2018-10-18T14:13:01.169Z,21.63
2018-10-18T14:15:30.272Z,21.64
2018-10-18T14:17:59.952Z,21.33
2018-10-18T14:20:28.950Z,21.10
2018-10-18T14:22:58.136Z,20.89
2018-10-18T14:25:28.238Z,21.29
2018-10-18T14:27:57.371Z,21.36
2018-10-18T14:30:28.233Z,21.42
2018-10-18T14:32:57.378Z,21.48
2018-10-18T14:35:26.511Z,21.32
2018-10-18T14:37:55.658Z,21.32
2018-10-18T14:40:25.006Z,21.49
2018-10-18T14:43:02.499Z,21.65
2018-10-18T14:45:36.107Z,21.45
2018-10-18T14:48:11.007Z,21.36
2018-10-18T14:50:41.899Z,21.44
2018-10-18T14:56:42.542Z,21.04
2018-10-18T14:59:19.067Z,21.16
2018-10-18T15:01:53.981Z,21.22
2018-10-18T15:04:27.698Z,21.27
2018-10-18T15:10:14.742Z,21.08
2018-10-18T15:12:44.874Z,20.66
2018-10-18T15:15:14.646Z,20.62
2018-10-18T15:17:43.879Z,20.92
2018-10-18T15:20:24.277Z,20.69
2018-10-18T15:22:53.413Z,20.62
2018-10-18T15:25:24.491Z,20.61
2018-10-18T15:27:53.644Z,20.29
2018-10-18T15:30:26.404Z,20.40
2018-10-18T15:32:55.723Z,20.29
2018-10-18T15:35:28.165Z,20.37
2018-10-18T15:37:57.402Z,20.05
2018-10-18T15:40:28.363Z,19.90
2018-10-18T15:42:58.038Z,19.78
2018-10-18T15:45:31.132Z,19.62
2018-10-18T15:48:00.383Z,19.90
2018-10-18T15:50:30.713Z,19.68
2018-10-18T15:53:00.132Z,19.46
2018-10-18T15:55:30.350Z,19.38
2018-10-18T15:57:59.659Z,19.56
2018-10-18T16:00:43.731Z,19.43
2018-10-18T16:03:13.030Z,19.23
2018-10-18T16:05:42.264Z,19.05
2018-10-18T16:08:11.494Z,19.04
2018-10-18T16:10:40.717Z,19.07
2018-10-18T16:13:22.008Z,18.80
2018-10-18T16:15:51.157Z,18.85
2018-10-18T16:18:24.805Z,18.86
2018-10-18T16:21:11.090Z,18.65
2018-10-18T16:23:49.786Z,18.42
2018-10-18T16:26:19.572Z,18.39
2018-10-18T16:28:49.829Z,18.40
2018-10-18T16:31:38.941Z,18.24
2018-10-18T16:34:08.195Z,18.21
2018-10-18T16:36:38.348Z,18.04
2018-10-18T16:39:09.801Z,17.88
2018-10-18T16:41:43.448Z,17.86
2018-10-18T16:44:12.666Z,17.72
2018-10-18T16:46:42.355Z,17.60
2018-10-18T16:49:11.619Z,17.46
2018-10-18T16:51:41.821Z,17.39
2018-10-18T16:54:11.327Z,17.27
2018-10-18T16:56:40.399Z,17.28
2018-10-18T16:59:09.547Z,17.25
2018-10-18T17:01:39.509Z,17.09
2018-10-18T17:04:08.714Z,16.96
2018-10-18T17:06:37.702Z,17.00
2018-10-18T17:09:08.743Z,16.76
2018-10-18T17:11:37.899Z,16.73
2018-10-18T17:14:07.027Z,16.68
2018-10-18T17:16:36.064Z,16.62
2018-10-18T17:19:05.451Z,16.55
2018-10-18T17:21:34.545Z,16.38
2018-10-18T17:24:03.759Z,16.29
2018-10-18T17:26:32.848Z,16.19
2018-10-18T17:29:02.488Z,16.07
2018-10-18T17:31:31.525Z,16.07
2018-10-18T17:34:00.625Z,15.94
2018-10-18T17:36:29.598Z,15.87
2018-10-18T17:38:59.721Z,15.81
2018-10-18T17:41:28.875Z,15.68
2018-10-18T17:43:58.047Z,15.65
2018-10-18T17:46:27.003Z,15.51
2018-10-18T17:48:56.063Z,15.49
2018-10-18T17:51:25.162Z,15.43
2018-10-18T17:53:54.270Z,15.34
2018-10-18T17:56:23.311Z,15.23
2018-10-18T17:58:52.368Z,15.14
2018-10-18T18:01:21.447Z,15.08
2018-10-18T18:03:51.971Z,14.98
2018-10-18T18:06:21.193Z,14.94
2018-10-18T18:08:50.075Z,14.80
2018-10-18T18:11:19.338Z,14.72
2018-10-18T18:13:48.355Z,14.67
2018-10-18T18:16:17.863Z,14.64
2018-10-18T18:18:46.923Z,14.54
2018-10-18T18:21:15.964Z,14.43
2018-10-18T18:23:45.034Z,14.41
2018-10-18T18:26:14.096Z,14.33
2018-10-18T18:28:43.205Z,14.28
2018-10-18T18:31:12.336Z,14.23
2018-10-18T18:33:41.363Z,14.22
2018-10-18T18:36:11.710Z,14.14
2018-10-18T18:38:40.774Z,14.08
2018-10-18T18:41:09.837Z,14.03
2018-10-18T18:43:38.919Z,13.95
2018-10-18T18:46:07.964Z,13.93
2018-10-18T18:48:37.018Z,13.86
2018-10-18T18:51:06.192Z,13.77
2018-10-18T18:53:35.204Z,13.72
2018-10-18T18:56:05.007Z,13.72
2018-10-18T18:58:34.086Z,13.60
2018-10-18T19:01:03.146Z,13.54
2018-10-18T19:03:32.211Z,13.49
2018-10-18T19:06:01.255Z,13.45
2018-10-18T19:08:30.283Z,13.40
2018-10-18T19:11:00.012Z,13.34
2018-10-18T19:13:29.152Z,13.34
2018-10-18T19:15:58.157Z,13.31
2018-10-18T19:18:27.263Z,13.27
2018-10-18T19:20:56.339Z,13.21
2018-10-18T19:23:25.570Z,13.22
2018-10-18T19:25:54.655Z,13.12
2018-10-18T19:28:23.676Z,13.04
2018-10-18T19:30:52.807Z,13.04
2018-10-18T19:33:22.089Z,13.06
2018-10-18T19:35:51.098Z,13.02
2018-10-18T19:38:22.630Z,12.99
2018-10-18T19:40:51.648Z,12.93
2018-10-18T19:43:20.749Z,12.93
2018-10-18T19:45:50.026Z,12.89
2018-10-18T19:48:19.066Z,12.85
2018-10-18T19:50:48.164Z,12.80
2018-10-18T19:53:17.436Z,12.68
2018-10-18T19:55:46.491Z,12.68
2018-10-18T19:58:15.770Z,12.64
2018-10-18T20:00:44.823Z,12.60
2018-10-18T20:03:13.889Z,12.55
2018-10-18T20:05:43.159Z,12.53
2018-10-18T20:08:12.269Z,12.49
2018-10-18T20:10:41.275Z,12.43
2018-10-18T20:13:10.380Z,12.41
2018-10-18T20:15:39.416Z,12.40
2018-10-18T20:18:08.937Z,12.33
2018-10-18T20:20:37.902Z,12.28
2018-10-18T20:23:06.945Z,12.27
2018-10-18T20:25:36.159Z,12.22
2018-10-18T20:28:05.421Z,12.20
2018-10-18T20:30:34.469Z,12.14
2018-10-18T20:33:03.595Z,12.13
2018-10-18T20:35:32.613Z,12.13
2018-10-18T20:38:02.034Z,12.06
2018-10-18T20:40:31.079Z,12.02
2018-10-18T20:43:00.131Z,12.00
2018-10-18T20:45:36.167Z,11.96
2018-10-18T20:48:05.332Z,11.94
2018-10-18T20:50:34.270Z,11.90
2018-10-18T20:53:03.410Z,11.86
2018-10-18T20:55:32.464Z,11.80
2018-10-18T20:58:02.492Z,11.76
2018-10-18T21:00:31.599Z,11.74
2018-10-18T21:03:00.940Z,11.68
2018-10-18T21:05:30.170Z,11.59
2018-10-18T21:07:59.351Z,11.58
2018-10-18T21:10:28.403Z,11.51
2018-10-18T21:12:57.576Z,11.50
2018-10-18T21:15:26.873Z,11.43
2018-10-18T21:17:55.947Z,11.42
2018-10-18T21:20:25.060Z,11.32
2018-10-18T21:22:54.170Z,11.30
2018-10-18T21:25:23.205Z,11.25
2018-10-18T21:27:52.297Z,11.23
2018-10-18T21:30:21.326Z,11.19
2018-10-18T21:32:50.405Z,11.13
2018-10-18T21:35:19.467Z,11.09
2018-10-18T21:37:48.532Z,11.04
2018-10-18T21:40:17.596Z,11.00
2018-10-18T21:42:46.680Z,10.94
2018-10-18T21:45:16.151Z,10.88
2018-10-18T21:47:45.187Z,10.82
2018-10-18T21:50:14.222Z,10.76
2018-10-18T21:52:43.287Z,10.70
2018-10-18T21:55:12.327Z,10.69
2018-10-18T21:57:41.362Z,10.60
2018-10-18T22:00:15.859Z,10.55
2018-10-18T22:02:45.730Z,10.48
2018-10-18T22:05:15.357Z,10.49
2018-10-18T22:07:44.561Z,10.44
2018-10-18T22:10:14.637Z,10.38
2018-10-18T22:12:43.728Z,10.35
2018-10-18T22:15:12.850Z,10.27
2018-10-18T22:17:41.802Z,10.24
2018-10-18T22:20:11.043Z,10.18
2018-10-18T22:22:40.066Z,10.17
2018-10-18T22:25:09.703Z,10.07
2018-10-18T22:27:38.754Z,10.04
2018-10-18T22:30:08.133Z,10.05
2018-10-18T22:32:37.192Z,10.02
2018-10-18T22:35:06.311Z,9.97
2018-10-18T22:37:35.322Z,9.95
2018-10-18T22:40:04.565Z,9.92
2018-10-18T22:42:33.655Z,9.91
2018-10-18T22:45:03.910Z,9.83
2018-10-18T22:47:33.128Z,9.85
2018-10-18T22:50:03.321Z,9.82
2018-10-18T22:52:32.408Z,9.79
2018-10-18T22:55:01.645Z,9.74
2018-10-18T22:57:30.868Z,9.74
2018-10-18T23:00:00.071Z,9.71
2018-10-18T23:02:31.737Z,9.63
2018-10-18T23:05:04.237Z,9.62
2018-10-18T23:07:33.416Z,9.64
2018-10-18T23:10:04.336Z,9.61
2018-10-18T23:12:33.434Z,9.57
2018-10-18T23:15:12.074Z,9.55
2018-10-18T23:20:33.098Z,9.52
2018-10-18T23:23:02.256Z,9.46
2018-10-18T23:25:31.296Z,9.44
2018-10-18T23:28:01.536Z,9.37
2018-10-18T23:30:31.579Z,9.37
2018-10-18T23:33:00.743Z,9.35
2018-10-18T23:35:29.853Z,9.35
2018-10-18T23:37:58.916Z,9.34
2018-10-18T23:40:28.069Z,9.32
2018-10-18T23:42:57.192Z,9.33
2018-10-18T23:45:26.260Z,9.29
2018-10-18T23:47:56.210Z,9.24
2018-10-18T23:50:25.310Z,9.20
2018-10-18T23:52:54.430Z,9.19
2018-10-18T23:55:23.715Z,9.18
2018-10-18T23:57:52.876Z,9.15
